Terminal Aerodrome Forecast
Issued by NWS Grand Junction, CO

Home | Current Version | Previous Version | Text Only | Print | Product List | Glossary On
Versions: 1 2 3 4 5 6 7 8 9 10 11 12 13 14 15 16 17 18 19 20 21 22 23 24 25 26 27 28 29 30 31
000
FTUS45 KGJT 221738
TAFGJT
TAF
KGJT 221738Z 2218/2318 23008KT P6SM VCSH FEW020 SCT050
     FM222200 28009KT P6SM FEW050 SCT080
     FM230200 04004KT P6SM FEW110
     FM230600 10009KT P6SM FEW150
     FM231500 VRB03KT P6SM SKC=

USA.gov is the U.S. government's official web portal to all federal, state and local government web resources and services.